Decoded Metar for KHIB (HIBBING in MN, USA) (IATA:HIB) | Meteo·Mobile Aviation Weather
aviador You're here:

KHIB Decoded Metar

HIBBING in MN, USA
Report Time2018-11-12 22:28:00
UTC Time2018-11-12 22:48:56
Flight Rules vfr VFR
Wind310° at 11 kt
W.Decomp.*RWY 31: 11.0 kt HW 0.4 kt LCW
RWY 22: 0.4 kt HW 11.0 kt RCW
W.Rank310° ranks 1
Current wind is above 310° avg. (9.7)
Visibility9999 m
Phenomena:N/A
Clouds:Overcast 030 Hf
Expected CloudBase > 2,000 ft AGL from Temp-Dew spread
Ceiling3,000 ft
Temp-12°C (ISA -24)
Dew Point-17°C (67% RH)
AAT-19.4°C
QNH1029 hPa
Density Alt-2,211 ft
Elevation1,352 ft
Report Wrong Elevation
Raw Report
KHIB 122228Z AUTO 31011KT 8SM OVC030 M12/M17 A3040 RMK AO2
UPB09E10SNE09 P0000 T11171167=

Extra information for KHIB:More info

Metar Taf Metar & Taf Last 4 Metars F.Rules Stats Wind Profile Meteogram Temp Stats Airport Information Weather charts Add Link Nearby VenuesMetar ALERT Operation Metar Decoded Social comments

AIRNAV info for KHIB